createdAt,value
2023-03-18T00:01:26.989Z,71.10
2023-03-18T00:03:59.796Z,72.66
2023-03-18T00:06:32.506Z,70.73
2023-03-18T00:09:06.183Z,71.93
2023-03-18T00:11:40.507Z,71.05
2023-03-18T00:14:13.545Z,72.59
2023-03-18T00:16:46.281Z,73.65
2023-03-18T00:19:18.947Z,72.84
2023-03-18T00:21:52.316Z,71.50
2023-03-18T00:24:25.083Z,72.48
2023-03-18T00:26:59.132Z,72.29
2023-03-18T00:29:31.889Z,72.96
2023-03-18T00:32:04.787Z,72.72
2023-03-18T00:34:37.464Z,72.40
2023-03-18T00:37:10.442Z,72.64
2023-03-18T00:39:44.332Z,72.21
2023-03-18T00:42:18.406Z,71.83
2023-03-18T00:44:51.075Z,73.08
2023-03-18T00:47:26.031Z,72.75
2023-03-18T00:49:58.941Z,73.77
2023-03-18T00:52:32.483Z,73.88
2023-03-18T00:55:06.848Z,73.39
2023-03-18T00:57:41.900Z,73.25
2023-03-18T01:00:16.909Z,72.33
2023-03-18T01:02:49.859Z,73.39
2023-03-18T01:05:25.925Z,71.67
2023-03-18T01:07:58.821Z,72.84
2023-03-18T01:10:31.756Z,71.25
2023-03-18T01:13:05.919Z,72.29
2023-03-18T01:15:38.972Z,72.55
2023-03-18T01:18:12.177Z,71.89
2023-03-18T01:20:45.645Z,71.90
2023-03-18T01:23:19.873Z,71.34
2023-03-18T01:25:52.884Z,71.78
2023-03-18T01:28:28.817Z,72.03
2023-03-18T01:31:01.929Z,73.65
2023-03-18T01:33:35.656Z,73.24
2023-03-18T01:36:09.470Z,74.34
2023-03-18T01:38:42.340Z,71.52
2023-03-18T01:41:18.793Z,71.29
2023-03-18T01:43:54.780Z,71.67
2023-03-18T01:46:37.646Z,71.76
2023-03-18T01:49:14.795Z,72.18
2023-03-18T01:51:53.704Z,71.45
2023-03-18T01:54:29.536Z,71.55
2023-03-18T01:57:03.630Z,71.36
2023-03-18T01:59:42.881Z,71.89
2023-03-18T02:02:17.387Z,72.14
2023-03-18T02:04:53.695Z,71.62
2023-03-18T02:07:29.716Z,71.14
2023-03-18T02:10:06.004Z,70.76
2023-03-18T02:12:44.818Z,71.16
2023-03-18T02:15:24.720Z,72.63
2023-03-18T02:18:03.514Z,71.15
2023-03-18T02:20:46.966Z,71.84
2023-03-18T02:23:33.233Z,71.94
2023-03-18T02:26:14.650Z,71.34
2023-03-18T02:28:51.839Z,71.74
2023-03-18T02:31:24.917Z,71.31
2023-03-18T02:33:59.866Z,72.15
2023-03-18T02:36:34.537Z,71.97
2023-03-18T02:39:15.619Z,72.72
2023-03-18T02:41:48.547Z,71.63
2023-03-18T02:44:23.433Z,71.20
2023-03-18T02:47:22.768Z,71.49
2023-03-18T02:49:55.820Z,71.87
2023-03-18T02:52:28.607Z,71.98
2023-03-18T02:55:01.725Z,71.20
2023-03-18T02:57:35.425Z,72.28
2023-03-18T03:00:13.557Z,71.42
2023-03-18T03:02:46.406Z,71.53
2023-03-18T03:05:19.197Z,72.20
2023-03-18T03:07:51.945Z,71.62
2023-03-18T03:10:25.779Z,72.24
2023-03-18T03:12:58.664Z,71.52
2023-03-18T03:15:33.858Z,71.03
2023-03-18T03:18:08.631Z,70.70
2023-03-18T03:20:42.647Z,70.64
2023-03-18T03:23:16.724Z,71.90
2023-03-18T03:25:50.348Z,69.88
2023-03-18T03:28:23.028Z,70.05
2023-03-18T03:30:59.158Z,70.08
2023-03-18T03:33:31.864Z,69.71
2023-03-18T03:36:05.195Z,70.41
2023-03-18T03:38:38.582Z,70.56
2023-03-18T03:41:11.724Z,71.43
2023-03-18T03:43:44.955Z,70.97
2023-03-18T03:46:19.088Z,71.42
2023-03-18T03:48:51.984Z,72.01
2023-03-18T03:51:24.746Z,71.88
2023-03-18T03:53:57.552Z,71.63
2023-03-18T03:56:31.457Z,71.68
2023-03-18T03:59:04.819Z,71.93
2023-03-18T04:01:58.808Z,70.87
2023-03-18T04:04:31.886Z,71.29
2023-03-18T04:07:05.257Z,71.39
2023-03-18T04:09:38.138Z,71.87
2023-03-18T04:12:14.272Z,71.00
2023-03-18T04:14:50.767Z,71.56
2023-03-18T04:17:25.973Z,71.53
2023-03-18T04:19:58.756Z,71.44
2023-03-18T04:22:36.240Z,71.49
2023-03-18T04:25:11.988Z,70.96
2023-03-18T04:27:46.366Z,71.10
2023-03-18T04:30:20.640Z,69.89
2023-03-18T04:33:04.546Z,70.04
2023-03-18T04:35:38.234Z,71.44
2023-03-18T04:38:11.296Z,70.44
2023-03-18T04:40:45.556Z,71.93
2023-03-18T04:43:18.385Z,71.92
2023-03-18T04:45:53.578Z,72.59
2023-03-18T04:48:28.510Z,71.62
2023-03-18T04:51:03.512Z,71.83
2023-03-18T04:53:37.742Z,71.65
2023-03-18T04:56:10.887Z,71.35
2023-03-18T04:58:50.831Z,72.19
2023-03-18T05:01:28.331Z,72.34
2023-03-18T05:04:02.860Z,72.00
2023-03-18T05:06:44.655Z,71.83
2023-03-18T05:09:19.802Z,72.00
2023-03-18T05:11:53.115Z,72.34
2023-03-18T05:14:31.331Z,71.95
2023-03-18T05:17:05.531Z,72.07
2023-03-18T05:19:43.884Z,71.98
2023-03-18T05:22:24.909Z,72.46
2023-03-18T05:25:04.849Z,71.82
2023-03-18T05:27:38.486Z,72.43
2023-03-18T05:30:17.469Z,72.23
2023-03-18T05:32:55.002Z,72.61
2023-03-18T05:35:41.672Z,72.08
2023-03-18T05:38:14.850Z,72.54
2023-03-18T05:40:47.702Z,71.49
2023-03-18T05:43:28.388Z,72.04
2023-03-18T05:46:04.315Z,72.61
2023-03-18T05:48:56.069Z,72.69
2023-03-18T05:51:34.138Z,72.79
2023-03-18T05:54:09.248Z,72.63
2023-03-18T05:56:47.299Z,72.91
2023-03-18T05:59:22.039Z,72.31
2023-03-18T06:02:00.489Z,72.76
2023-03-18T06:04:33.383Z,73.07
2023-03-18T06:07:07.695Z,72.79
2023-03-18T06:09:40.493Z,72.83
2023-03-18T06:12:13.226Z,73.42
2023-03-18T06:14:46.538Z,73.64
2023-03-18T06:17:22.357Z,72.81
2023-03-18T06:19:56.926Z,72.21
2023-03-18T06:22:32.532Z,72.99
2023-03-18T06:25:08.070Z,72.85
2023-03-18T06:27:43.842Z,72.99
2023-03-18T06:30:18.700Z,73.40
2023-03-18T06:32:53.325Z,73.54
2023-03-18T06:35:28.114Z,73.63
2023-03-18T06:38:02.735Z,73.11
2023-03-18T06:40:37.729Z,73.44
2023-03-18T06:43:12.418Z,72.84
2023-03-18T06:45:49.062Z,72.94
2023-03-18T06:48:21.931Z,73.52
2023-03-18T06:50:54.612Z,72.10
2023-03-18T06:53:33.667Z,72.21
2023-03-18T06:56:07.844Z,73.01
2023-03-18T06:58:51.502Z,73.82
2023-03-18T07:01:24.355Z,72.02
2023-03-18T07:04:00.718Z,72.74
2023-03-18T07:06:34.741Z,72.39
2023-03-18T07:09:11.093Z,72.16
2023-03-18T07:11:44.238Z,73.16
2023-03-18T07:14:20.927Z,73.08
2023-03-18T07:16:53.746Z,72.85
2023-03-18T07:19:26.542Z,73.14
2023-03-18T07:21:59.378Z,73.06
2023-03-18T07:24:33.631Z,72.81
2023-03-18T07:27:06.819Z,73.09
2023-03-18T07:29:39.732Z,73.85
2023-03-18T07:32:12.561Z,73.70
2023-03-18T07:34:47.992Z,73.83
2023-03-18T07:37:20.923Z,73.84
2023-03-18T07:39:55.158Z,73.64
2023-03-18T07:42:28.317Z,74.46
2023-03-18T07:45:03.072Z,73.91
2023-03-18T07:47:36.233Z,73.94
2023-03-18T07:50:10.383Z,74.04
2023-03-18T07:52:44.654Z,73.71
2023-03-18T07:55:19.827Z,73.42
2023-03-18T07:57:52.710Z,73.72
2023-03-18T08:00:25.737Z,72.34
2023-03-18T08:02:58.466Z,73.91
2023-03-18T08:05:31.923Z,73.04
2023-03-18T08:08:05.377Z,74.45
2023-03-18T08:10:39.480Z,75.27
2023-03-18T08:13:12.973Z,75.61
2023-03-18T08:15:45.697Z,75.13
2023-03-18T08:18:18.567Z,74.89
2023-03-18T08:20:51.704Z,74.44
2023-03-18T08:23:25.245Z,74.48
2023-03-18T08:25:59.743Z,74.46
2023-03-18T08:28:32.553Z,75.33
2023-03-18T08:31:05.990Z,74.90
2023-03-18T08:33:38.686Z,74.46
2023-03-18T08:36:12.141Z,74.53
2023-03-18T08:38:47.893Z,74.17
2023-03-18T08:41:27.423Z,72.95
2023-03-18T08:44:00.191Z,74.60
2023-03-18T08:46:33.405Z,74.26
2023-03-18T08:49:07.016Z,74.32
2023-03-18T08:51:39.956Z,73.92
2023-03-18T08:54:13.371Z,73.71
2023-03-18T08:56:57.143Z,72.78
2023-03-18T08:59:31.095Z,72.82
2023-03-18T09:02:05.100Z,72.36
2023-03-18T09:04:38.828Z,71.62
2023-03-18T09:07:13.512Z,72.96
2023-03-18T09:09:46.340Z,71.97
2023-03-18T09:12:20.465Z,72.53
2023-03-18T09:14:53.635Z,71.76
2023-03-18T09:17:40.350Z,72.19
2023-03-18T09:20:19.352Z,71.57
2023-03-18T09:22:52.380Z,72.08
2023-03-18T09:25:25.947Z,72.02
2023-03-18T09:28:01.267Z,71.93
2023-03-18T09:30:34.097Z,70.82
2023-03-18T09:33:07.783Z,70.69
2023-03-18T09:35:41.142Z,69.89
2023-03-18T09:38:16.804Z,70.12
2023-03-18T09:41:02.417Z,69.56
2023-03-18T09:43:54.633Z,69.42
2023-03-18T09:46:36.932Z,69.76
2023-03-18T09:49:21.710Z,68.77
2023-03-18T09:52:02.769Z,70.11
2023-03-18T09:54:41.294Z,68.96
2023-03-18T09:57:18.768Z,70.55
2023-03-18T09:59:55.894Z,70.79
2023-03-18T10:02:35.005Z,70.31
2023-03-18T10:05:13.645Z,69.25
2023-03-18T10:07:51.623Z,70.74
2023-03-18T10:10:29.276Z,68.97
2023-03-18T10:13:06.959Z,68.48
2023-03-18T10:15:45.498Z,69.52
2023-03-18T10:18:24.916Z,70.27
2023-03-18T10:21:11.409Z,70.40
2023-03-18T10:23:52.461Z,69.25
2023-03-18T10:26:32.187Z,70.12
2023-03-18T10:29:15.499Z,68.49
2023-03-18T10:32:04.026Z,69.12
2023-03-18T10:34:42.592Z,70.15
2023-03-18T10:37:24.785Z,69.64
2023-03-18T10:39:58.900Z,69.71
2023-03-18T10:42:33.997Z,70.24
2023-03-18T10:45:17.190Z,69.51
2023-03-18T10:47:53.698Z,69.58
2023-03-18T10:50:33.596Z,69.92
2023-03-18T10:53:17.875Z,70.13
2023-03-18T10:55:57.682Z,69.26
2023-03-18T10:58:30.474Z,69.70
2023-03-18T11:01:04.329Z,69.99
2023-03-18T11:03:43.473Z,70.06
2023-03-18T11:06:20.841Z,70.03
2023-03-18T11:09:03.337Z,70.22
2023-03-18T11:11:36.822Z,70.66
2023-03-18T11:14:17.104Z,70.41
2023-03-18T11:16:57.605Z,70.84
2023-03-18T11:19:33.400Z,70.93
2023-03-18T11:22:20.228Z,71.40
2023-03-18T11:25:06.206Z,71.08
2023-03-18T11:27:40.776Z,71.19
2023-03-18T11:30:32.744Z,71.09
2023-03-18T11:33:14.078Z,71.03
2023-03-18T11:35:53.284Z,70.71
2023-03-18T11:38:28.889Z,71.36
2023-03-18T11:41:08.576Z,71.46
2023-03-18T11:43:56.443Z,71.19
2023-03-18T11:46:33.518Z,71.23
2023-03-18T11:49:07.363Z,71.61
2023-03-18T11:51:46.843Z,70.98
2023-03-18T11:54:44.263Z,71.28
2023-03-18T11:57:23.495Z,70.99
2023-03-18T12:00:07.783Z,71.40
2023-03-18T12:02:57.940Z,70.57
2023-03-18T12:05:49.693Z,70.16
2023-03-18T12:08:33.418Z,71.90
2023-03-18T12:11:12.945Z,70.92
2023-03-18T12:13:56.996Z,71.28
2023-03-18T12:16:45.199Z,70.99
2023-03-18T12:19:39.882Z,72.23
2023-03-18T12:22:30.569Z,72.61
2023-03-18T12:25:20.875Z,70.23
2023-03-18T12:28:01.810Z,72.42
2023-03-18T12:31:02.518Z,71.95
2023-03-18T12:33:50.776Z,71.83
2023-03-18T12:36:33.170Z,72.43
2023-03-18T12:39:29.904Z,72.04
2023-03-18T12:42:12.046Z,70.55
2023-03-18T12:44:54.666Z,69.30
2023-03-18T12:47:36.894Z,70.09
2023-03-18T12:50:17.240Z,67.80
2023-03-18T12:52:54.468Z,72.00
2023-03-18T12:55:30.025Z,68.04
2023-03-18T12:58:10.413Z,67.41
2023-03-18T13:00:50.133Z,69.06
2023-03-18T13:03:32.474Z,71.23
2023-03-18T13:06:11.797Z,68.18
2023-03-18T13:08:56.324Z,69.25
2023-03-18T13:11:49.303Z,67.46
2023-03-18T13:14:29.797Z,68.71
2023-03-18T13:17:04.587Z,68.71
2023-03-18T13:19:41.327Z,69.20
2023-03-18T13:22:37.601Z,68.60
2023-03-18T13:25:19.621Z,65.92
2023-03-18T13:28:05.306Z,67.46
2023-03-18T13:30:54.360Z,69.54
2023-03-18T13:33:52.019Z,66.44
2023-03-18T13:36:44.496Z,69.61
2023-03-18T13:39:36.083Z,69.18
2023-03-18T13:42:23.086Z,69.95
2023-03-18T13:45:02.745Z,67.42
2023-03-18T13:47:38.988Z,65.63
2023-03-18T13:50:31.098Z,68.83
2023-03-18T13:53:05.491Z,69.20
2023-03-18T13:55:47.575Z,66.09
2023-03-18T13:58:26.070Z,65.21
2023-03-18T14:01:27.048Z,66.31
2023-03-18T14:04:31.295Z,66.33
2023-03-18T14:07:16.924Z,66.26
2023-03-18T14:10:02.504Z,67.10
2023-03-18T14:12:42.801Z,67.63
2023-03-18T14:15:39.962Z,72.17
2023-03-18T14:18:28.611Z,71.50
2023-03-18T14:21:04.277Z,68.30
2023-03-18T14:23:40.292Z,68.13
2023-03-18T14:26:22.127Z,67.22
2023-03-18T14:28:57.519Z,66.85
2023-03-18T14:31:51.445Z,69.89
2023-03-18T14:34:27.822Z,72.24
2023-03-18T14:37:30.255Z,69.74
2023-03-18T14:40:08.436Z,71.30
2023-03-18T14:42:56.629Z,71.87
2023-03-18T14:45:34.933Z,73.10
2023-03-18T14:48:18.330Z,72.28
2023-03-18T14:50:51.928Z,71.88
2023-03-18T14:53:32.115Z,72.26
2023-03-18T14:56:06.024Z,70.63
2023-03-18T14:58:38.774Z,70.85
2023-03-18T15:01:16.234Z,70.82
2023-03-18T15:03:50.695Z,71.46
2023-03-18T15:06:26.650Z,71.64
2023-03-18T15:09:04.571Z,74.09
2023-03-18T15:11:40.559Z,71.73
2023-03-18T15:14:19.304Z,72.44
2023-03-18T15:16:54.539Z,73.62
2023-03-18T15:19:29.329Z,72.45
2023-03-18T15:22:04.541Z,71.43
2023-03-18T15:24:38.754Z,72.56
2023-03-18T15:27:17.909Z,70.70
2023-03-18T15:29:54.021Z,71.13
2023-03-18T15:32:28.894Z,75.27
2023-03-18T15:35:14.217Z,72.19
2023-03-18T15:37:48.279Z,72.85
2023-03-18T15:40:35.898Z,71.16
2023-03-18T15:43:20.416Z,69.25
2023-03-18T15:45:56.829Z,72.43
2023-03-18T15:48:34.891Z,70.44
2023-03-18T15:51:11.114Z,71.85
2023-03-18T15:53:47.804Z,72.47
2023-03-18T15:56:26.937Z,69.65
2023-03-18T15:59:06.849Z,70.74
2023-03-18T16:01:40.187Z,67.23
2023-03-18T16:04:16.729Z,67.09
2023-03-18T16:06:49.735Z,69.56
2023-03-18T16:09:22.992Z,70.17
2023-03-18T16:11:59.879Z,71.61
2023-03-18T16:14:38.282Z,70.44
2023-03-18T16:17:12.470Z,72.13
2023-03-18T16:19:46.305Z,70.61
2023-03-18T16:22:19.203Z,70.05
2023-03-18T16:24:52.495Z,69.98
2023-03-18T16:27:31.958Z,70.26
2023-03-18T16:30:06.126Z,71.55
2023-03-18T16:32:39.217Z,70.42
2023-03-18T16:35:15.912Z,70.06
2023-03-18T16:37:50.304Z,69.50
2023-03-18T16:40:24.515Z,70.39
2023-03-18T16:42:58.843Z,69.75
2023-03-18T16:45:34.383Z,69.75
2023-03-18T16:48:08.685Z,69.71
2023-03-18T16:50:42.644Z,69.47
2023-03-18T16:53:20.337Z,70.76
2023-03-18T16:55:56.112Z,70.68
2023-03-18T16:58:33.577Z,70.20
2023-03-18T17:01:07.140Z,70.48
2023-03-18T17:03:40.042Z,70.11
2023-03-18T17:06:13.217Z,70.21
2023-03-18T17:08:45.887Z,71.25
2023-03-18T17:11:19.230Z,73.50
2023-03-18T17:13:53.728Z,71.46
2023-03-18T17:16:30.542Z,70.49
2023-03-18T17:19:03.467Z,71.27
2023-03-18T17:21:36.033Z,69.88
2023-03-18T17:24:09.543Z,68.61
2023-03-18T17:26:44.657Z,69.10
2023-03-18T17:29:24.372Z,68.69
2023-03-18T17:31:57.620Z,67.19
2023-03-18T17:34:30.394Z,69.59
2023-03-18T17:37:03.920Z,71.32
2023-03-18T17:39:36.612Z,71.00
2023-03-18T17:42:26.075Z,70.47
2023-03-18T17:45:05.630Z,70.48
2023-03-18T17:47:38.637Z,71.15
2023-03-18T17:50:15.034Z,71.06
2023-03-18T17:52:52.675Z,70.14
2023-03-18T17:55:27.288Z,70.48
2023-03-18T17:57:59.998Z,70.17
2023-03-18T18:00:36.672Z,70.77
2023-03-18T18:03:20.615Z,70.37
2023-03-18T18:05:54.580Z,70.34
2023-03-18T18:08:30.044Z,69.65
2023-03-18T18:11:12.399Z,69.81
2023-03-18T18:13:45.596Z,70.76
2023-03-18T18:16:21.587Z,69.49
2023-03-18T18:18:54.460Z,69.62
2023-03-18T18:21:27.188Z,70.37
2023-03-18T18:24:00.029Z,70.41
2023-03-18T18:26:33.230Z,70.65
2023-03-18T18:29:14.108Z,70.74
2023-03-18T18:31:48.880Z,70.65
2023-03-18T18:34:22.515Z,71.78
2023-03-18T18:36:55.250Z,70.67
2023-03-18T18:39:28.059Z,70.22
2023-03-18T18:42:00.843Z,70.15
2023-03-18T18:44:33.821Z,70.67
2023-03-18T18:47:19.911Z,70.16
2023-03-18T18:49:53.734Z,70.68
2023-03-18T18:52:26.541Z,70.84
2023-03-18T18:55:00.289Z,70.44
2023-03-18T18:57:35.123Z,70.48
2023-03-18T19:00:17.466Z,70.46
2023-03-18T19:02:56.267Z,70.30
2023-03-18T19:05:29.378Z,70.48
2023-03-18T19:08:03.807Z,70.11
2023-03-18T19:10:36.741Z,71.74
2023-03-18T19:13:13.994Z,70.41
2023-03-18T19:15:48.586Z,70.11
2023-03-18T19:18:25.328Z,69.90
2023-03-18T19:20:58.521Z,70.25
2023-03-18T19:23:33.216Z,69.57
2023-03-18T19:26:07.390Z,70.94
2023-03-18T19:29:01.353Z,70.02
2023-03-18T19:31:35.505Z,70.04
2023-03-18T19:34:16.200Z,74.40
2023-03-18T19:36:52.988Z,71.17
2023-03-18T19:39:27.816Z,70.12
2023-03-18T19:42:00.581Z,69.75
2023-03-18T19:44:33.436Z,72.93
2023-03-18T19:47:06.300Z,70.01
2023-03-18T19:49:40.902Z,72.05
2023-03-18T19:52:19.587Z,72.00
2023-03-18T19:54:53.525Z,70.42
2023-03-18T19:57:30.307Z,70.39
2023-03-18T20:00:05.148Z,70.97
2023-03-18T20:02:38.616Z,73.58
2023-03-18T20:05:18.565Z,71.28
2023-03-18T20:07:51.367Z,71.20
2023-03-18T20:10:24.350Z,71.47
2023-03-18T20:12:57.317Z,72.25
2023-03-18T20:15:30.049Z,74.37
2023-03-18T20:18:02.891Z,71.71
2023-03-18T20:20:37.114Z,73.47
2023-03-18T20:23:14.732Z,71.67
2023-03-18T20:25:51.171Z,70.92
2023-03-18T20:28:25.847Z,71.44
2023-03-18T20:30:59.621Z,71.91
2023-03-18T20:33:33.462Z,71.94
2023-03-18T20:36:14.777Z,72.91
2023-03-18T20:38:49.916Z,72.94
2023-03-18T20:41:24.075Z,74.33
2023-03-18T20:43:56.760Z,72.12
2023-03-18T20:46:29.755Z,71.12
2023-03-18T20:49:02.596Z,72.48
2023-03-18T20:51:40.769Z,72.45
2023-03-18T20:54:18.815Z,71.27
2023-03-18T20:56:51.721Z,72.96
2023-03-18T20:59:25.118Z,71.83
2023-03-18T21:01:57.842Z,73.65
2023-03-18T21:04:31.005Z,73.46
2023-03-18T21:07:05.137Z,71.84
2023-03-18T21:09:39.507Z,71.18
2023-03-18T21:12:17.099Z,71.49
2023-03-18T21:14:51.129Z,71.69
2023-03-18T21:17:25.918Z,72.18
2023-03-18T21:20:10.979Z,71.70
2023-03-18T21:22:49.975Z,72.21
2023-03-18T21:25:24.429Z,71.71
2023-03-18T21:27:58.913Z,71.65
2023-03-18T21:30:31.671Z,73.24
2023-03-18T21:33:18.404Z,71.42
2023-03-18T21:35:52.534Z,72.69
2023-03-18T21:38:27.490Z,73.25
2023-03-18T21:41:02.207Z,73.35
2023-03-18T21:43:36.833Z,72.75
2023-03-18T21:46:14.193Z,71.95
2023-03-18T21:48:47.377Z,71.92
2023-03-18T21:51:37.492Z,72.34
2023-03-18T21:54:18.756Z,74.14
2023-03-18T21:56:51.482Z,72.24
2023-03-18T21:59:24.335Z,72.83
2023-03-18T22:01:57.269Z,71.84
2023-03-18T22:04:29.960Z,72.02
2023-03-18T22:07:02.939Z,73.31
2023-03-18T22:09:36.912Z,74.53
2023-03-18T22:12:14.237Z,73.76
2023-03-18T22:14:47.014Z,72.77
2023-03-18T22:17:22.693Z,73.27
2023-03-18T22:19:56.804Z,72.63
2023-03-18T22:22:35.658Z,74.01
2023-03-18T22:25:26.131Z,74.35
2023-03-18T22:27:59.377Z,72.24
2023-03-18T22:30:34.184Z,72.32
2023-03-18T22:33:07.409Z,72.20
2023-03-18T22:35:40.360Z,73.56
2023-03-18T22:38:14.813Z,73.28
2023-03-18T22:40:51.688Z,72.34
2023-03-18T22:43:30.885Z,72.59
2023-03-18T22:46:06.131Z,73.67
2023-03-18T22:48:41.374Z,73.32
2023-03-18T22:51:23.516Z,73.18
2023-03-18T22:53:56.622Z,73.44
2023-03-18T22:56:32.146Z,72.24
2023-03-18T22:59:04.858Z,74.24
2023-03-18T23:01:38.107Z,73.05
2023-03-18T23:04:12.198Z,73.55
2023-03-18T23:06:44.975Z,73.03
2023-03-18T23:09:17.681Z,74.63
2023-03-18T23:11:51.903Z,73.82
2023-03-18T23:14:24.693Z,73.81
2023-03-18T23:16:57.465Z,73.79
2023-03-18T23:19:30.430Z,74.26
2023-03-18T23:22:02.979Z,73.77
2023-03-18T23:24:35.676Z,74.06
2023-03-18T23:27:09.829Z,74.03
2023-03-18T23:29:43.365Z,73.73
2023-03-18T23:32:18.031Z,73.19
2023-03-18T23:34:51.728Z,73.13
2023-03-18T23:37:24.456Z,74.17
2023-03-18T23:39:57.182Z,73.34
2023-03-18T23:42:31.256Z,72.25
2023-03-18T23:45:05.729Z,71.77
2023-03-18T23:47:38.473Z,72.36
2023-03-18T23:50:12.188Z,72.49
2023-03-18T23:52:44.943Z,72.25
2023-03-18T23:55:45.401Z,72.72
2023-03-18T23:58:12.062Z,72.15
